sensor_id;sensor_type;location;lat;lon;timestamp;temperature;humidity
23579;DHT22;11967;50.852;4.400;2022-07-05T00:02:22;22.40;99.90
23579;DHT22;11967;50.852;4.400;2022-07-05T00:04:48;22.50;99.90
23579;DHT22;11967;50.852;4.400;2022-07-05T00:07:16;22.40;99.90
23579;DHT22;11967;50.852;4.400;2022-07-05T00:12:11;22.40;99.90
23579;DHT22;11967;50.852;4.400;2022-07-05T00:14:39;22.40;99.90
23579;DHT22;11967;50.852;4.400;2022-07-05T00:17:05;22.40;99.90
23579;DHT22;11967;50.852;4.400;2022-07-05T00:19:31;22.40;99.90
23579;DHT22;11967;50.852;4.400;2022-07-05T00:21:57;22.40;99.90
23579;DHT22;11967;50.852;4.400;2022-07-05T00:24:24;22.50;99.90
23579;DHT22;11967;50.852;4.400;2022-07-05T00:26:49;22.40;99.90
23579;DHT22;11967;50.852;4.400;2022-07-05T00:29:15;22.30;99.90
23579;DHT22;11967;50.852;4.400;2022-07-05T00:31:41;22.30;99.90
23579;DHT22;11967;50.852;4.400;2022-07-05T00:34:06;22.30;99.90
23579;DHT22;11967;50.852;4.400;2022-07-05T00:36:32;22.30;99.90
23579;DHT22;11967;50.852;4.400;2022-07-05T00:38:58;22.30;99.90
23579;DHT22;11967;50.852;4.400;2022-07-05T00:41:25;22.30;99.90
23579;DHT22;11967;50.852;4.400;2022-07-05T00:44:02;22.30;99.90
23579;DHT22;11967;50.852;4.400;2022-07-05T00:46:28;22.30;99.90
23579;DHT22;11967;50.852;4.400;2022-07-05T00:48:54;22.30;99.90
23579;DHT22;11967;50.852;4.400;2022-07-05T00:51:21;22.30;99.90
23579;DHT22;11967;50.852;4.400;2022-07-05T00:53:47;22.30;99.90
23579;DHT22;11967;50.852;4.400;2022-07-05T00:56:13;22.20;99.90
23579;DHT22;11967;50.852;4.400;2022-07-05T00:58:39;22.20;99.90
23579;DHT22;11967;50.852;4.400;2022-07-05T01:01:07;22.10;99.90
23579;DHT22;11967;50.852;4.400;2022-07-05T01:03:33;22.20;99.90
23579;DHT22;11967;50.852;4.400;2022-07-05T01:06:05;22.20;99.90
23579;DHT22;11967;50.852;4.400;2022-07-05T01:08:34;22.20;99.90
23579;DHT22;11967;50.852;4.400;2022-07-05T01:11:00;22.30;99.90
23579;DHT22;11967;50.852;4.400;2022-07-05T01:13:27;22.20;99.90
23579;DHT22;11967;50.852;4.400;2022-07-05T01:15:53;22.30;99.90
23579;DHT22;11967;50.852;4.400;2022-07-05T01:18:21;22.30;99.90
23579;DHT22;11967;50.852;4.400;2022-07-05T01:20:50;22.20;99.90
23579;DHT22;11967;50.852;4.400;2022-07-05T01:23:17;22.20;99.90
23579;DHT22;11967;50.852;4.400;2022-07-05T01:25:44;22.20;99.90
23579;DHT22;11967;50.852;4.400;2022-07-05T01:28:10;22.20;99.90
23579;DHT22;11967;50.852;4.400;2022-07-05T01:30:36;22.20;99.90
23579;DHT22;11967;50.852;4.400;2022-07-05T01:33:06;22.20;99.90
23579;DHT22;11967;50.852;4.400;2022-07-05T01:35:32;22.20;99.90
23579;DHT22;11967;50.852;4.400;2022-07-05T01:37:58;22.20;99.90
23579;DHT22;11967;50.852;4.400;2022-07-05T01:40:23;22.20;99.90
23579;DHT22;11967;50.852;4.400;2022-07-05T01:42:50;22.10;99.90
23579;DHT22;11967;50.852;4.400;2022-07-05T01:45:16;22.10;99.90
23579;DHT22;11967;50.852;4.400;2022-07-05T01:48:02;22.10;99.90
23579;DHT22;11967;50.852;4.400;2022-07-05T01:50:29;22.10;99.90
23579;DHT22;11967;50.852;4.400;2022-07-05T01:52:56;22.10;99.90
23579;DHT22;11967;50.852;4.400;2022-07-05T01:55:24;22.10;99.90
23579;DHT22;11967;50.852;4.400;2022-07-05T01:57:50;22.00;99.90
23579;DHT22;11967;50.852;4.400;2022-07-05T02:00:16;22.00;99.90
23579;DHT22;11967;50.852;4.400;2022-07-05T02:02:42;22.00;99.90
23579;DHT22;11967;50.852;4.400;2022-07-05T02:05:09;22.00;99.90
23579;DHT22;11967;50.852;4.400;2022-07-05T02:07:35;22.00;99.90
23579;DHT22;11967;50.852;4.400;2022-07-05T02:10:00;22.00;99.90
23579;DHT22;11967;50.852;4.400;2022-07-05T02:12:26;22.00;99.90
23579;DHT22;11967;50.852;4.400;2022-07-05T02:14:51;22.00;99.90
23579;DHT22;11967;50.852;4.400;2022-07-05T02:17:17;22.00;99.90
23579;DHT22;11967;50.852;4.400;2022-07-05T02:19:43;22.00;99.90
23579;DHT22;11967;50.852;4.400;2022-07-05T02:22:08;22.00;99.90
23579;DHT22;11967;50.852;4.400;2022-07-05T02:24:35;21.90;99.90
23579;DHT22;11967;50.852;4.400;2022-07-05T02:27:01;21.90;99.90
23579;DHT22;11967;50.852;4.400;2022-07-05T02:29:26;21.80;99.90
23579;DHT22;11967;50.852;4.400;2022-07-05T02:31:52;21.90;99.90
23579;DHT22;11967;50.852;4.400;2022-07-05T02:34:17;21.80;99.90
23579;DHT22;11967;50.852;4.400;2022-07-05T02:36:44;21.90;99.90
23579;DHT22;11967;50.852;4.400;2022-07-05T02:39:10;21.90;99.90
23579;DHT22;11967;50.852;4.400;2022-07-05T02:41:35;21.90;99.90
23579;DHT22;11967;50.852;4.400;2022-07-05T02:44:01;21.90;99.90
23579;DHT22;11967;50.852;4.400;2022-07-05T02:46:27;21.80;99.90
23579;DHT22;11967;50.852;4.400;2022-07-05T02:48:52;21.70;99.90
23579;DHT22;11967;50.852;4.400;2022-07-05T02:51:18;21.70;99.90
23579;DHT22;11967;50.852;4.400;2022-07-05T02:53:44;21.80;99.90
23579;DHT22;11967;50.852;4.400;2022-07-05T02:56:10;21.80;99.90
23579;DHT22;11967;50.852;4.400;2022-07-05T02:58:37;21.70;99.90
23579;DHT22;11967;50.852;4.400;2022-07-05T03:01:03;21.60;99.90
23579;DHT22;11967;50.852;4.400;2022-07-05T03:03:29;21.60;99.90
23579;DHT22;11967;50.852;4.400;2022-07-05T03:05:54;21.70;99.90
23579;DHT22;11967;50.852;4.400;2022-07-05T03:08:20;21.70;99.90
23579;DHT22;11967;50.852;4.400;2022-07-05T03:10:46;21.70;99.90
23579;DHT22;11967;50.852;4.400;2022-07-05T03:13:12;21.60;99.90
23579;DHT22;11967;50.852;4.400;2022-07-05T03:15:37;21.60;99.90
23579;DHT22;11967;50.852;4.400;2022-07-05T03:18:03;21.50;99.90
23579;DHT22;11967;50.852;4.400;2022-07-05T03:20:29;21.50;99.90
23579;DHT22;11967;50.852;4.400;2022-07-05T03:22:54;21.40;99.90
23579;DHT22;11967;50.852;4.400;2022-07-05T03:25:21;21.30;99.90
23579;DHT22;11967;50.852;4.400;2022-07-05T03:27:46;21.30;99.90
23579;DHT22;11967;50.852;4.400;2022-07-05T03:30:12;21.20;99.90
23579;DHT22;11967;50.852;4.400;2022-07-05T03:32:39;21.20;99.90
23579;DHT22;11967;50.852;4.400;2022-07-05T03:35:05;21.20;99.90
23579;DHT22;11967;50.852;4.400;2022-07-05T03:37:31;21.20;99.90
23579;DHT22;11967;50.852;4.400;2022-07-05T03:39:56;21.20;99.90
23579;DHT22;11967;50.852;4.400;2022-07-05T03:42:22;21.10;99.90
23579;DHT22;11967;50.852;4.400;2022-07-05T03:44:48;21.10;99.90
23579;DHT22;11967;50.852;4.400;2022-07-05T03:47:14;21.00;99.90
23579;DHT22;11967;50.852;4.400;2022-07-05T03:49:40;20.90;99.90
23579;DHT22;11967;50.852;4.400;2022-07-05T03:52:05;20.90;99.90
23579;DHT22;11967;50.852;4.400;2022-07-05T03:54:31;20.90;99.90
23579;DHT22;11967;50.852;4.400;2022-07-05T03:56:57;20.90;99.90
23579;DHT22;11967;50.852;4.400;2022-07-05T03:59:23;21.00;99.90
23579;DHT22;11967;50.852;4.400;2022-07-05T04:01:49;20.90;99.90
23579;DHT22;11967;50.852;4.400;2022-07-05T04:04:15;20.90;99.90
23579;DHT22;11967;50.852;4.400;2022-07-05T04:06:40;20.90;99.90
23579;DHT22;11967;50.852;4.400;2022-07-05T04:09:08;21.00;99.90
23579;DHT22;11967;50.852;4.400;2022-07-05T04:11:36;21.00;99.90
23579;DHT22;11967;50.852;4.400;2022-07-05T04:14:02;20.90;99.90
23579;DHT22;11967;50.852;4.400;2022-07-05T04:16:28;21.00;99.90
23579;DHT22;11967;50.852;4.400;2022-07-05T04:18:54;20.90;99.90
23579;DHT22;11967;50.852;4.400;2022-07-05T04:21:19;20.90;99.90
23579;DHT22;11967;50.852;4.400;2022-07-05T04:23:45;20.80;99.90
23579;DHT22;11967;50.852;4.400;2022-07-05T04:26:11;20.80;99.90
23579;DHT22;11967;50.852;4.400;2022-07-05T04:28:36;20.80;99.90
23579;DHT22;11967;50.852;4.400;2022-07-05T04:31:02;20.80;99.90
23579;DHT22;11967;50.852;4.400;2022-07-05T04:33:28;20.70;99.90
23579;DHT22;11967;50.852;4.400;2022-07-05T04:35:53;20.60;99.90
23579;DHT22;11967;50.852;4.400;2022-07-05T04:38:19;20.60;99.90
23579;DHT22;11967;50.852;4.400;2022-07-05T04:40:48;20.50;99.90
23579;DHT22;11967;50.852;4.400;2022-07-05T04:43:14;20.50;99.90
23579;DHT22;11967;50.852;4.400;2022-07-05T04:45:39;20.30;99.90
23579;DHT22;11967;50.852;4.400;2022-07-05T04:48:09;20.20;99.90
23579;DHT22;11967;50.852;4.400;2022-07-05T04:50:35;20.20;99.90
23579;DHT22;11967;50.852;4.400;2022-07-05T04:53:01;20.40;99.90
23579;DHT22;11967;50.852;4.400;2022-07-05T04:55:26;20.40;99.90
23579;DHT22;11967;50.852;4.400;2022-07-05T04:57:52;20.30;99.90
23579;DHT22;11967;50.852;4.400;2022-07-05T05:00:18;20.30;99.90
23579;DHT22;11967;50.852;4.400;2022-07-05T05:02:46;20.30;99.90
23579;DHT22;11967;50.852;4.400;2022-07-05T05:05:12;20.20;99.90
23579;DHT22;11967;50.852;4.400;2022-07-05T05:07:42;20.00;99.90
23579;DHT22;11967;50.852;4.400;2022-07-05T05:10:29;20.00;99.90
23579;DHT22;11967;50.852;4.400;2022-07-05T05:12:54;19.90;99.90
23579;DHT22;11967;50.852;4.400;2022-07-05T05:15:19;19.90;99.90
23579;DHT22;11967;50.852;4.400;2022-07-05T05:17:45;20.00;99.90
23579;DHT22;11967;50.852;4.400;2022-07-05T05:20:13;19.80;99.90
23579;DHT22;11967;50.852;4.400;2022-07-05T05:22:39;19.90;99.90
23579;DHT22;11967;50.852;4.400;2022-07-05T05:25:05;19.90;99.90
23579;DHT22;11967;50.852;4.400;2022-07-05T05:27:31;20.00;99.90
23579;DHT22;11967;50.852;4.400;2022-07-05T05:32:53;20.00;99.90
23579;DHT22;11967;50.852;4.400;2022-07-05T05:35:19;20.10;99.90
23579;DHT22;11967;50.852;4.400;2022-07-05T05:37:50;20.20;99.90
23579;DHT22;11967;50.852;4.400;2022-07-05T05:40:16;20.20;99.90
23579;DHT22;11967;50.852;4.400;2022-07-05T05:45:41;20.10;99.90
23579;DHT22;11967;50.852;4.400;2022-07-05T05:48:06;20.20;99.90
23579;DHT22;11967;50.852;4.400;2022-07-05T05:50:39;20.20;99.90
23579;DHT22;11967;50.852;4.400;2022-07-05T05:53:05;20.30;99.90
23579;DHT22;11967;50.852;4.400;2022-07-05T05:55:34;20.30;99.90
23579;DHT22;11967;50.852;4.400;2022-07-05T06:00:37;20.70;99.90
23579;DHT22;11967;50.852;4.400;2022-07-05T06:03:03;20.60;99.90
23579;DHT22;11967;50.852;4.400;2022-07-05T06:05:29;20.60;99.90
23579;DHT22;11967;50.852;4.400;2022-07-05T06:07:56;20.50;99.90
23579;DHT22;11967;50.852;4.400;2022-07-05T06:10:24;20.40;99.90
23579;DHT22;11967;50.852;4.400;2022-07-05T06:13:18;20.40;99.90
23579;DHT22;11967;50.852;4.400;2022-07-05T06:15:58;20.50;99.90
23579;DHT22;11967;50.852;4.400;2022-07-05T06:18:27;20.50;99.90
23579;DHT22;11967;50.852;4.400;2022-07-05T06:20:57;20.40;99.90
23579;DHT22;11967;50.852;4.400;2022-07-05T06:23:26;20.40;99.90
23579;DHT22;11967;50.852;4.400;2022-07-05T06:25:53;20.40;99.90
23579;DHT22;11967;50.852;4.400;2022-07-05T06:28:18;20.40;99.90
23579;DHT22;11967;50.852;4.400;2022-07-05T06:30:44;20.40;99.90
23579;DHT22;11967;50.852;4.400;2022-07-05T06:33:10;20.50;99.90
23579;DHT22;11967;50.852;4.400;2022-07-05T06:35:35;20.50;99.90
23579;DHT22;11967;50.852;4.400;2022-07-05T06:38:03;20.60;99.90
23579;DHT22;11967;50.852;4.400;2022-07-05T06:40:34;20.60;99.90
23579;DHT22;11967;50.852;4.400;2022-07-05T06:43:08;20.60;99.90
23579;DHT22;11967;50.852;4.400;2022-07-05T06:45:35;20.60;99.90
23579;DHT22;11967;50.852;4.400;2022-07-05T06:48:10;20.60;99.90
23579;DHT22;11967;50.852;4.400;2022-07-05T06:50:39;20.60;99.90
23579;DHT22;11967;50.852;4.400;2022-07-05T06:53:05;20.50;99.90
23579;DHT22;11967;50.852;4.400;2022-07-05T06:55:31;20.40;99.90
23579;DHT22;11967;50.852;4.400;2022-07-05T06:58:06;20.40;99.90
23579;DHT22;11967;50.852;4.400;2022-07-05T07:00:34;20.40;99.90
23579;DHT22;11967;50.852;4.400;2022-07-05T07:03:00;20.40;99.90
23579;DHT22;11967;50.852;4.400;2022-07-05T07:05:26;20.40;99.90
23579;DHT22;11967;50.852;4.400;2022-07-05T07:07:51;20.30;99.90
23579;DHT22;11967;50.852;4.400;2022-07-05T07:10:35;20.30;99.90
23579;DHT22;11967;50.852;4.400;2022-07-05T07:13:01;20.40;99.90
23579;DHT22;11967;50.852;4.400;2022-07-05T07:15:28;20.40;99.90
23579;DHT22;11967;50.852;4.400;2022-07-05T07:17:55;20.40;99.90
23579;DHT22;11967;50.852;4.400;2022-07-05T07:20:20;20.30;99.90
23579;DHT22;11967;50.852;4.400;2022-07-05T07:22:47;20.40;99.90
23579;DHT22;11967;50.852;4.400;2022-07-05T07:25:13;20.50;99.90
23579;DHT22;11967;50.852;4.400;2022-07-05T07:27:43;20.70;99.90
23579;DHT22;11967;50.852;4.400;2022-07-05T07:30:13;20.80;99.90
23579;DHT22;11967;50.852;4.400;2022-07-05T07:32:39;21.00;99.90
23579;DHT22;11967;50.852;4.400;2022-07-05T07:35:06;21.10;99.90
23579;DHT22;11967;50.852;4.400;2022-07-05T07:37:34;21.20;99.90
23579;DHT22;11967;50.852;4.400;2022-07-05T07:42:41;21.30;99.90
23579;DHT22;11967;50.852;4.400;2022-07-05T07:51:23;21.70;99.90
23579;DHT22;11967;50.852;4.400;2022-07-05T07:53:52;21.70;99.90
23579;DHT22;11967;50.852;4.400;2022-07-05T07:56:25;21.90;99.90
23579;DHT22;11967;50.852;4.400;2022-07-05T07:58:59;22.00;99.90
23579;DHT22;11967;50.852;4.400;2022-07-05T08:01:25;22.10;99.90
23579;DHT22;11967;50.852;4.400;2022-07-05T08:03:50;22.10;99.90
23579;DHT22;11967;50.852;4.400;2022-07-05T08:06:17;22.20;99.90
23579;DHT22;11967;50.852;4.400;2022-07-05T08:08:44;22.30;99.90
23579;DHT22;11967;50.852;4.400;2022-07-05T08:11:11;22.50;99.90
23579;DHT22;11967;50.852;4.400;2022-07-05T08:13:37;22.60;99.90
23579;DHT22;11967;50.852;4.400;2022-07-05T08:16:04;22.50;99.90
23579;DHT22;11967;50.852;4.400;2022-07-05T08:18:33;22.40;99.90
23579;DHT22;11967;50.852;4.400;2022-07-05T08:21:18;22.40;99.90
23579;DHT22;11967;50.852;4.400;2022-07-05T08:24:11;22.40;99.90
23579;DHT22;11967;50.852;4.400;2022-07-05T08:26:41;22.40;99.90
23579;DHT22;11967;50.852;4.400;2022-07-05T08:29:09;22.50;99.90
23579;DHT22;11967;50.852;4.400;2022-07-05T08:31:37;22.50;99.90
23579;DHT22;11967;50.852;4.400;2022-07-05T08:34:03;22.50;99.90
23579;DHT22;11967;50.852;4.400;2022-07-05T08:36:29;22.40;99.90
23579;DHT22;11967;50.852;4.400;2022-07-05T08:38:55;22.50;99.90
23579;DHT22;11967;50.852;4.400;2022-07-05T08:41:21;22.60;99.90
23579;DHT22;11967;50.852;4.400;2022-07-05T08:43:48;22.60;99.90
23579;DHT22;11967;50.852;4.400;2022-07-05T08:46:15;22.70;99.90
23579;DHT22;11967;50.852;4.400;2022-07-05T08:48:47;22.70;99.90
23579;DHT22;11967;50.852;4.400;2022-07-05T08:51:15;22.70;99.90
23579;DHT22;11967;50.852;4.400;2022-07-05T08:53:47;22.80;99.90
23579;DHT22;11967;50.852;4.400;2022-07-05T08:56:14;22.80;99.90
23579;DHT22;11967;50.852;4.400;2022-07-05T08:58:40;22.80;99.90
23579;DHT22;11967;50.852;4.400;2022-07-05T09:01:07;22.80;99.90
23579;DHT22;11967;50.852;4.400;2022-07-05T09:03:47;22.60;99.90
23579;DHT22;11967;50.852;4.400;2022-07-05T09:06:16;22.60;99.90
23579;DHT22;11967;50.852;4.400;2022-07-05T09:08:42;22.60;99.90
23579;DHT22;11967;50.852;4.400;2022-07-05T09:11:14;22.60;99.90
23579;DHT22;11967;50.852;4.400;2022-07-05T09:13:42;22.50;99.90
23579;DHT22;11967;50.852;4.400;2022-07-05T09:16:09;22.60;99.90
23579;DHT22;11967;50.852;4.400;2022-07-05T09:18:49;22.50;99.90
23579;DHT22;11967;50.852;4.400;2022-07-05T09:21:26;22.70;99.90
23579;DHT22;11967;50.852;4.400;2022-07-05T09:24:01;22.90;99.90
23579;DHT22;11967;50.852;4.400;2022-07-05T09:26:43;22.90;99.90
23579;DHT22;11967;50.852;4.400;2022-07-05T09:29:17;22.90;99.90
23579;DHT22;11967;50.852;4.400;2022-07-05T09:31:49;22.80;99.90
23579;DHT22;11967;50.852;4.400;2022-07-05T09:34:16;22.90;99.90
23579;DHT22;11967;50.852;4.400;2022-07-05T09:37:01;23.00;99.90
23579;DHT22;11967;50.852;4.400;2022-07-05T09:45:25;22.80;99.90
23579;DHT22;11967;50.852;4.400;2022-07-05T09:47:54;22.90;99.90
23579;DHT22;11967;50.852;4.400;2022-07-05T09:50:41;22.90;99.90
23579;DHT22;11967;50.852;4.400;2022-07-05T09:53:08;23.00;99.90
23579;DHT22;11967;50.852;4.400;2022-07-05T09:55:37;23.10;99.90
23579;DHT22;11967;50.852;4.400;2022-07-05T09:58:04;23.10;99.90
23579;DHT22;11967;50.852;4.400;2022-07-05T10:00:30;23.30;99.90
23579;DHT22;11967;50.852;4.400;2022-07-05T10:02:57;23.40;99.90
23579;DHT22;11967;50.852;4.400;2022-07-05T10:05:31;23.50;99.90
23579;DHT22;11967;50.852;4.400;2022-07-05T10:08:01;23.30;99.90
23579;DHT22;11967;50.852;4.400;2022-07-05T10:10:31;23.10;99.90
23579;DHT22;11967;50.852;4.400;2022-07-05T10:13:01;23.10;99.90
23579;DHT22;11967;50.852;4.400;2022-07-05T10:15:32;23.30;99.90
23579;DHT22;11967;50.852;4.400;2022-07-05T10:18:20;23.50;99.90
23579;DHT22;11967;50.852;4.400;2022-07-05T10:20:47;23.60;99.90
23579;DHT22;11967;50.852;4.400;2022-07-05T10:23:16;23.70;99.90
23579;DHT22;11967;50.852;4.400;2022-07-05T10:25:45;23.70;99.90
23579;DHT22;11967;50.852;4.400;2022-07-05T10:28:16;23.70;99.90
23579;DHT22;11967;50.852;4.400;2022-07-05T10:30:48;23.90;99.90
23579;DHT22;11967;50.852;4.400;2022-07-05T10:33:20;23.90;99.90
23579;DHT22;11967;50.852;4.400;2022-07-05T10:35:50;23.80;99.90
23579;DHT22;11967;50.852;4.400;2022-07-05T10:38:17;23.90;99.90
23579;DHT22;11967;50.852;4.400;2022-07-05T10:40:45;23.60;99.90
23579;DHT22;11967;50.852;4.400;2022-07-05T10:43:14;23.60;99.90
23579;DHT22;11967;50.852;4.400;2022-07-05T10:46:00;23.60;99.90
23579;DHT22;11967;50.852;4.400;2022-07-05T10:49:09;23.60;99.90
23579;DHT22;11967;50.852;4.400;2022-07-05T10:51:39;23.70;99.90
23579;DHT22;11967;50.852;4.400;2022-07-05T10:54:13;23.80;99.90
23579;DHT22;11967;50.852;4.400;2022-07-05T10:57:20;23.70;99.90
23579;DHT22;11967;50.852;4.400;2022-07-05T11:00:09;23.70;99.90
23579;DHT22;11967;50.852;4.400;2022-07-05T11:02:36;23.70;99.90
23579;DHT22;11967;50.852;4.400;2022-07-05T11:05:06;23.70;99.90
23579;DHT22;11967;50.852;4.400;2022-07-05T11:07:57;23.60;99.80
23579;DHT22;11967;50.852;4.400;2022-07-05T11:10:23;23.50;99.90
23579;DHT22;11967;50.852;4.400;2022-07-05T11:12:49;23.40;99.90
23579;DHT22;11967;50.852;4.400;2022-07-05T11:15:14;23.50;99.90
23579;DHT22;11967;50.852;4.400;2022-07-05T11:17:40;23.60;99.90
23579;DHT22;11967;50.852;4.400;2022-07-05T11:25:29;24.10;99.90
23579;DHT22;11967;50.852;4.400;2022-07-05T11:28:13;24.10;99.90
23579;DHT22;11967;50.852;4.400;2022-07-05T11:30:50;24.00;99.60
23579;DHT22;11967;50.852;4.400;2022-07-05T11:33:30;24.10;98.60
23579;DHT22;11967;50.852;4.400;2022-07-05T11:35:57;24.00;97.00
23579;DHT22;11967;50.852;4.400;2022-07-05T11:38:23;24.10;98.40
23579;DHT22;11967;50.852;4.400;2022-07-05T11:40:49;24.20;99.50
23579;DHT22;11967;50.852;4.400;2022-07-05T11:43:25;24.30;99.40
23579;DHT22;11967;50.852;4.400;2022-07-05T11:46:01;24.40;99.60
23579;DHT22;11967;50.852;4.400;2022-07-05T11:48:29;24.30;99.90
23579;DHT22;11967;50.852;4.400;2022-07-05T11:50:55;24.40;99.80
23579;DHT22;11967;50.852;4.400;2022-07-05T11:53:29;24.30;99.70
23579;DHT22;11967;50.852;4.400;2022-07-05T11:55:57;24.40;99.90
23579;DHT22;11967;50.852;4.400;2022-07-05T11:58:33;24.50;99.90
23579;DHT22;11967;50.852;4.400;2022-07-05T12:00:59;24.60;99.90
23579;DHT22;11967;50.852;4.400;2022-07-05T12:03:26;24.40;99.90
23579;DHT22;11967;50.852;4.400;2022-07-05T12:05:52;24.30;99.90
23579;DHT22;11967;50.852;4.400;2022-07-05T12:08:25;24.30;99.90
23579;DHT22;11967;50.852;4.400;2022-07-05T12:10:52;24.30;99.90
23579;DHT22;11967;50.852;4.400;2022-07-05T12:13:46;24.40;99.90
23579;DHT22;11967;50.852;4.400;2022-07-05T12:16:14;24.50;99.90
23579;DHT22;11967;50.852;4.400;2022-07-05T12:18:50;24.50;99.90
23579;DHT22;11967;50.852;4.400;2022-07-05T12:21:16;24.50;99.90
23579;DHT22;11967;50.852;4.400;2022-07-05T12:23:43;24.60;99.90
23579;DHT22;11967;50.852;4.400;2022-07-05T12:26:17;24.60;99.60
23579;DHT22;11967;50.852;4.400;2022-07-05T12:28:43;24.60;99.90
23579;DHT22;11967;50.852;4.400;2022-07-05T12:31:19;24.60;99.90
23579;DHT22;11967;50.852;4.400;2022-07-05T12:33:45;24.60;99.90
23579;DHT22;11967;50.852;4.400;2022-07-05T12:36:14;24.60;99.90
23579;DHT22;11967;50.852;4.400;2022-07-05T12:38:40;24.70;99.90
23579;DHT22;11967;50.852;4.400;2022-07-05T12:41:07;24.60;99.90
23579;DHT22;11967;50.852;4.400;2022-07-05T12:43:33;24.70;99.90
23579;DHT22;11967;50.852;4.400;2022-07-05T12:46:07;24.70;99.90
23579;DHT22;11967;50.852;4.400;2022-07-05T12:48:34;24.70;99.90
23579;DHT22;11967;50.852;4.400;2022-07-05T12:51:00;24.80;99.90
23579;DHT22;11967;50.852;4.400;2022-07-05T12:53:27;24.80;99.90
23579;DHT22;11967;50.852;4.400;2022-07-05T12:56:12;24.90;99.90
23579;DHT22;11967;50.852;4.400;2022-07-05T13:01:33;24.80;99.90
23579;DHT22;11967;50.852;4.400;2022-07-05T13:04:09;25.00;99.90
23579;DHT22;11967;50.852;4.400;2022-07-05T13:09:36;25.00;99.90
23579;DHT22;11967;50.852;4.400;2022-07-05T13:12:07;25.00;99.90
23579;DHT22;11967;50.852;4.400;2022-07-05T13:14:33;25.00;99.90
23579;DHT22;11967;50.852;4.400;2022-07-05T13:17:00;25.00;99.90
23579;DHT22;11967;50.852;4.400;2022-07-05T13:19:25;24.90;99.90
23579;DHT22;11967;50.852;4.400;2022-07-05T13:21:51;24.90;99.90
23579;DHT22;11967;50.852;4.400;2022-07-05T13:24:17;25.00;99.90
23579;DHT22;11967;50.852;4.400;2022-07-05T13:26:43;24.90;99.90
23579;DHT22;11967;50.852;4.400;2022-07-05T13:29:08;24.80;99.90
23579;DHT22;11967;50.852;4.400;2022-07-05T13:31:34;24.90;99.90
23579;DHT22;11967;50.852;4.400;2022-07-05T13:33:59;24.90;99.90
23579;DHT22;11967;50.852;4.400;2022-07-05T13:36:26;24.90;99.90
23579;DHT22;11967;50.852;4.400;2022-07-05T13:38:52;25.00;99.90
23579;DHT22;11967;50.852;4.400;2022-07-05T13:41:18;25.10;99.90
23579;DHT22;11967;50.852;4.400;2022-07-05T13:43:44;25.00;99.90
23579;DHT22;11967;50.852;4.400;2022-07-05T13:46:13;25.00;99.90
23579;DHT22;11967;50.852;4.400;2022-07-05T13:48:40;25.10;99.90
23579;DHT22;11967;50.852;4.400;2022-07-05T13:51:07;25.10;99.80
23579;DHT22;11967;50.852;4.400;2022-07-05T13:53:33;25.10;99.80
23579;DHT22;11967;50.852;4.400;2022-07-05T13:55:58;25.20;99.60
23579;DHT22;11967;50.852;4.400;2022-07-05T13:58:24;25.20;99.50
23579;DHT22;11967;50.852;4.400;2022-07-05T14:00:50;25.10;99.50
23579;DHT22;11967;50.852;4.400;2022-07-05T14:03:16;25.00;99.70
23579;DHT22;11967;50.852;4.400;2022-07-05T14:05:46;25.10;99.60
23579;DHT22;11967;50.852;4.400;2022-07-05T14:08:12;25.00;99.10
23579;DHT22;11967;50.852;4.400;2022-07-05T14:10:39;25.00;98.90
23579;DHT22;11967;50.852;4.400;2022-07-05T14:13:05;25.10;99.40
23579;DHT22;11967;50.852;4.400;2022-07-05T14:15:31;25.20;99.40
23579;DHT22;11967;50.852;4.400;2022-07-05T14:17:57;25.20;98.70
23579;DHT22;11967;50.852;4.400;2022-07-05T14:20:25;25.20;98.40
23579;DHT22;11967;50.852;4.400;2022-07-05T14:22:51;25.20;98.10
23579;DHT22;11967;50.852;4.400;2022-07-05T14:25:16;25.20;98.60
23579;DHT22;11967;50.852;4.400;2022-07-05T14:27:42;25.20;98.10
23579;DHT22;11967;50.852;4.400;2022-07-05T14:30:08;25.10;98.20
23579;DHT22;11967;50.852;4.400;2022-07-05T14:32:36;25.10;97.40
23579;DHT22;11967;50.852;4.400;2022-07-05T14:35:03;25.00;98.00
23579;DHT22;11967;50.852;4.400;2022-07-05T14:37:28;25.00;97.80
23579;DHT22;11967;50.852;4.400;2022-07-05T14:39:54;25.10;97.90
23579;DHT22;11967;50.852;4.400;2022-07-05T14:42:20;25.10;98.00
23579;DHT22;11967;50.852;4.400;2022-07-05T14:44:45;25.10;97.80
23579;DHT22;11967;50.852;4.400;2022-07-05T14:47:11;25.00;97.80
23579;DHT22;11967;50.852;4.400;2022-07-05T14:49:37;25.00;97.70
23579;DHT22;11967;50.852;4.400;2022-07-05T14:52:02;24.90;97.60
23579;DHT22;11967;50.852;4.400;2022-07-05T14:54:28;24.80;98.00
23579;DHT22;11967;50.852;4.400;2022-07-05T14:56:54;24.80;98.60
23579;DHT22;11967;50.852;4.400;2022-07-05T14:59:21;24.90;98.40
23579;DHT22;11967;50.852;4.400;2022-07-05T15:01:47;24.90;98.40
23579;DHT22;11967;50.852;4.400;2022-07-05T15:04:12;25.00;98.30
23579;DHT22;11967;50.852;4.400;2022-07-05T15:06:38;25.10;98.00
23579;DHT22;11967;50.852;4.400;2022-07-05T15:09:06;25.00;97.90
23579;DHT22;11967;50.852;4.400;2022-07-05T15:11:32;25.10;98.20
23579;DHT22;11967;50.852;4.400;2022-07-05T15:13:57;25.00;98.00
23579;DHT22;11967;50.852;4.400;2022-07-05T15:16:25;25.00;97.50
23579;DHT22;11967;50.852;4.400;2022-07-05T15:18:51;25.00;97.70
23579;DHT22;11967;50.852;4.400;2022-07-05T15:21:18;25.00;98.10
23579;DHT22;11967;50.852;4.400;2022-07-05T15:23:44;25.00;97.80
23579;DHT22;11967;50.852;4.400;2022-07-05T15:26:10;25.00;96.80
23579;DHT22;11967;50.852;4.400;2022-07-05T15:28:35;24.90;97.20
23579;DHT22;11967;50.852;4.400;2022-07-05T15:31:02;24.90;97.40
23579;DHT22;11967;50.852;4.400;2022-07-05T15:33:28;24.90;96.90
23579;DHT22;11967;50.852;4.400;2022-07-05T15:35:56;25.00;97.00
23579;DHT22;11967;50.852;4.400;2022-07-05T15:38:24;24.90;96.80
23579;DHT22;11967;50.852;4.400;2022-07-05T15:40:52;24.80;96.70
23579;DHT22;11967;50.852;4.400;2022-07-05T15:43:18;24.80;97.10
23579;DHT22;11967;50.852;4.400;2022-07-05T15:45:45;24.80;96.90
23579;DHT22;11967;50.852;4.400;2022-07-05T15:48:11;24.90;97.10
23579;DHT22;11967;50.852;4.400;2022-07-05T15:50:37;24.90;96.60
23579;DHT22;11967;50.852;4.400;2022-07-05T15:53:03;24.80;96.50
23579;DHT22;11967;50.852;4.400;2022-07-05T15:55:28;24.80;95.50
23579;DHT22;11967;50.852;4.400;2022-07-05T15:57:54;24.70;96.70
23579;DHT22;11967;50.852;4.400;2022-07-05T16:00:19;24.70;96.40
23579;DHT22;11967;50.852;4.400;2022-07-05T16:02:45;24.70;96.40
23579;DHT22;11967;50.852;4.400;2022-07-05T16:05:11;24.70;95.90
23579;DHT22;11967;50.852;4.400;2022-07-05T16:07:36;24.70;96.30
23579;DHT22;11967;50.852;4.400;2022-07-05T16:10:02;24.70;96.00
23579;DHT22;11967;50.852;4.400;2022-07-05T16:12:28;24.80;96.40
23579;DHT22;11967;50.852;4.400;2022-07-05T16:14:54;24.90;95.70